createdAt,value
2023-02-18T00:00:08.184Z,17.90
2023-02-18T00:02:34.817Z,18.00
2023-02-18T00:05:01.392Z,18.10
2023-02-18T00:07:28.037Z,18.10
2023-02-18T00:09:54.703Z,18.10
2023-02-18T00:12:21.263Z,18.10
2023-02-18T00:14:47.833Z,18.00
2023-02-18T00:17:14.386Z,18.00
2023-02-18T00:19:40.951Z,18.00
2023-02-18T00:22:07.620Z,18.00
2023-02-18T00:24:34.155Z,18.00
2023-02-18T00:27:00.778Z,18.10
2023-02-18T00:29:27.429Z,18.10
2023-02-18T00:31:54.121Z,17.90
2023-02-18T00:34:20.758Z,17.90
2023-02-18T00:36:47.328Z,17.90
2023-02-18T00:39:13.954Z,17.80
2023-02-18T00:41:40.965Z,17.90
2023-02-18T00:44:07.903Z,17.90
2023-02-18T00:46:34.545Z,17.80
2023-02-18T00:49:01.191Z,17.80
2023-02-18T00:51:28.053Z,17.80
2023-02-18T00:53:54.750Z,17.90
2023-02-18T00:56:21.310Z,17.80
2023-02-18T00:58:47.934Z,17.80
2023-02-18T01:01:14.537Z,17.80
2023-02-18T01:03:41.815Z,17.80
2023-02-18T01:06:09.436Z,17.80
2023-02-18T01:08:36.609Z,17.80
2023-02-18T01:11:03.872Z,17.80
2023-02-18T01:13:30.435Z,17.70
2023-02-18T01:15:57.102Z,17.70
2023-02-18T01:18:24.697Z,17.70
2023-02-18T01:20:51.268Z,17.70
2023-02-18T01:23:18.491Z,17.70
2023-02-18T01:25:45.361Z,17.70
2023-02-18T01:28:12.919Z,17.70
2023-02-18T01:30:39.771Z,17.70
2023-02-18T01:33:06.710Z,17.70
2023-02-18T01:35:33.267Z,17.70
2023-02-18T01:37:59.854Z,17.70
2023-02-18T01:40:27.347Z,17.70
2023-02-18T01:42:54.441Z,17.70
2023-02-18T01:45:33.257Z,17.70
2023-02-18T01:48:05.899Z,17.70
2023-02-18T01:50:33.840Z,17.70
2023-02-18T01:53:00.782Z,17.80
2023-02-18T01:55:27.429Z,17.90
2023-02-18T01:57:54.096Z,17.90
2023-02-18T02:00:23.605Z,17.90
2023-02-18T02:02:51.809Z,17.90
2023-02-18T02:05:19.205Z,18.50
2023-02-18T02:07:47.525Z,18.00
2023-02-18T02:10:14.945Z,18.20
2023-02-18T02:13:00.298Z,17.90
2023-02-18T02:15:31.503Z,18.00
2023-02-18T02:18:06.311Z,17.90
2023-02-18T02:20:41.779Z,17.90
2023-02-18T02:23:27.630Z,17.90
2023-02-18T02:26:17.490Z,17.90
2023-02-18T02:29:04.645Z,17.90
2023-02-18T02:31:42.133Z,17.90
2023-02-18T02:34:23.389Z,18.40
2023-02-18T02:37:08.708Z,17.80
2023-02-18T02:39:54.208Z,17.80
2023-02-18T02:42:40.085Z,17.80
2023-02-18T02:45:06.633Z,17.80
2023-02-18T02:47:38.512Z,17.80
2023-02-18T02:50:23.878Z,17.80
2023-02-18T02:52:52.711Z,17.80
2023-02-18T02:55:19.305Z,17.80
2023-02-18T02:57:47.765Z,17.80
2023-02-18T03:00:15.549Z,17.80
2023-02-18T03:03:00.823Z,17.80
2023-02-18T03:05:37.635Z,17.80
2023-02-18T03:08:08.735Z,17.80
2023-02-18T03:10:35.596Z,17.70
2023-02-18T03:13:11.430Z,17.70
2023-02-18T03:15:41.063Z,17.70
2023-02-18T03:18:27.914Z,17.70
2023-02-18T03:21:13.861Z,17.80
2023-02-18T03:23:51.196Z,17.70
2023-02-18T03:26:18.624Z,17.70
2023-02-18T03:28:45.843Z,17.70
2023-02-18T03:31:14.987Z,17.70
2023-02-18T03:33:59.398Z,17.70
2023-02-18T03:36:26.163Z,17.70
2023-02-18T03:39:08.042Z,17.90
2023-02-18T03:41:35.457Z,17.70
2023-02-18T03:44:03.655Z,17.80
2023-02-18T03:46:30.532Z,17.70
2023-02-18T03:48:57.149Z,17.70
2023-02-18T03:51:23.935Z,17.80
2023-02-18T03:53:50.485Z,18.40
2023-02-18T03:56:17.467Z,17.90
2023-02-18T03:58:44.174Z,18.10
2023-02-18T04:01:10.740Z,18.00
2023-02-18T04:03:37.354Z,18.20
2023-02-18T04:06:04.093Z,17.90
2023-02-18T04:08:30.711Z,17.90
2023-02-18T04:10:57.312Z,17.90
2023-02-18T04:13:24.034Z,17.90
2023-02-18T04:15:51.196Z,17.90
2023-02-18T04:18:17.851Z,17.90
2023-02-18T04:20:46.234Z,18.20
2023-02-18T04:23:12.838Z,17.80
2023-02-18T04:25:39.417Z,17.80
2023-02-18T04:28:06.054Z,18.60
2023-02-18T04:30:32.740Z,17.80
2023-02-18T04:32:59.536Z,17.80
2023-02-18T04:35:26.120Z,17.80
2023-02-18T04:37:52.701Z,17.70
2023-02-18T04:40:19.409Z,17.80
2023-02-18T04:42:45.979Z,17.70
2023-02-18T04:45:12.578Z,17.70
2023-02-18T04:47:39.301Z,17.70
2023-02-18T04:50:06.256Z,17.70
2023-02-18T04:52:32.879Z,17.70
2023-02-18T04:54:59.463Z,17.70
2023-02-18T04:57:26.135Z,17.70
2023-02-18T04:59:52.703Z,17.70
2023-02-18T05:02:19.360Z,17.70
2023-02-18T05:04:45.919Z,17.60
2023-02-18T05:07:12.489Z,17.60
2023-02-18T05:09:39.202Z,17.90
2023-02-18T05:12:06.495Z,17.80
2023-02-18T05:14:33.105Z,17.60
2023-02-18T05:16:59.690Z,17.60
2023-02-18T05:19:26.293Z,17.70
2023-02-18T05:21:52.896Z,17.70
2023-02-18T05:24:19.458Z,17.70
2023-02-18T05:26:46.058Z,17.60
2023-02-18T05:29:12.715Z,17.60
2023-02-18T05:31:39.484Z,17.60
2023-02-18T05:34:06.110Z,17.60
2023-02-18T05:36:32.671Z,17.60
2023-02-18T05:38:59.263Z,17.70
2023-02-18T05:41:25.820Z,17.80
2023-02-18T05:44:11.247Z,17.80
2023-02-18T05:46:37.920Z,17.90
2023-02-18T05:49:04.615Z,17.90
2023-02-18T05:51:31.262Z,18.00
2023-02-18T05:53:57.852Z,18.00
2023-02-18T05:56:24.679Z,18.20
2023-02-18T05:58:51.315Z,17.90
2023-02-18T06:01:18.120Z,17.90
2023-02-18T06:03:44.701Z,17.90
2023-02-18T06:06:11.613Z,17.70
2023-02-18T06:08:38.514Z,17.80
2023-02-18T06:11:05.301Z,18.30
2023-02-18T06:13:32.047Z,17.80
2023-02-18T06:15:58.687Z,17.80
2023-02-18T06:18:25.289Z,17.80
2023-02-18T06:20:52.007Z,17.70
2023-02-18T06:23:18.914Z,17.70
2023-02-18T06:25:48.315Z,17.70
2023-02-18T06:28:14.947Z,17.90
2023-02-18T06:30:41.890Z,17.70
2023-02-18T06:33:08.489Z,17.90
2023-02-18T06:35:35.147Z,17.70
2023-02-18T06:38:02.042Z,17.70
2023-02-18T06:40:28.628Z,17.20
2023-02-18T06:42:55.489Z,17.70
2023-02-18T06:45:22.166Z,17.70
2023-02-18T06:47:48.819Z,17.70
2023-02-18T06:50:15.638Z,17.70
2023-02-18T06:52:42.406Z,17.70
2023-02-18T06:55:09.523Z,17.60
2023-02-18T06:57:36.076Z,17.60
2023-02-18T07:00:03.053Z,18.20
2023-02-18T07:02:29.635Z,17.70
2023-02-18T07:04:56.350Z,18.30
2023-02-18T07:07:22.912Z,17.70
2023-02-18T07:09:49.523Z,17.60
2023-02-18T07:12:16.092Z,17.70
2023-02-18T07:14:42.655Z,17.70
2023-02-18T07:17:13.185Z,17.80
2023-02-18T07:19:39.767Z,17.80
2023-02-18T07:22:06.404Z,17.90
2023-02-18T07:24:33.007Z,18.60
2023-02-18T07:26:59.596Z,18.40
2023-02-18T07:29:26.148Z,17.90
2023-02-18T07:31:52.898Z,18.00
2023-02-18T07:34:19.713Z,17.90
2023-02-18T07:36:46.382Z,18.60
2023-02-18T07:39:12.986Z,17.90
2023-02-18T07:41:39.882Z,17.90
2023-02-18T07:44:06.440Z,17.80
2023-02-18T07:46:35.894Z,17.80
2023-02-18T07:49:02.479Z,18.40
2023-02-18T07:51:29.053Z,17.80
2023-02-18T07:53:55.594Z,17.90
2023-02-18T07:56:24.013Z,18.30
2023-02-18T07:58:50.557Z,17.90
2023-02-18T08:01:17.251Z,18.30
2023-02-18T08:03:43.949Z,17.80
2023-02-18T08:06:20.556Z,17.80
2023-02-18T08:08:47.146Z,17.80
2023-02-18T08:11:19.231Z,17.80
2023-02-18T08:13:47.360Z,17.80
2023-02-18T08:16:14.379Z,18.40
2023-02-18T08:18:41.137Z,17.80
2023-02-18T08:21:07.738Z,17.90
2023-02-18T08:23:34.386Z,18.00
2023-02-18T08:26:01.216Z,18.10
2023-02-18T08:28:27.923Z,18.10
2023-02-18T08:30:54.990Z,18.20
2023-02-18T08:33:22.952Z,18.20
2023-02-18T08:35:50.534Z,18.20
2023-02-18T08:38:17.203Z,18.20
2023-02-18T08:40:43.896Z,18.40
2023-02-18T08:43:10.630Z,18.70
2023-02-18T08:45:38.206Z,17.90
2023-02-18T08:48:17.728Z,18.00
2023-02-18T08:50:46.764Z,18.00
2023-02-18T08:53:13.378Z,18.00
2023-02-18T08:55:40.577Z,17.90
2023-02-18T08:58:07.267Z,17.90
2023-02-18T09:00:33.879Z,18.30
2023-02-18T09:03:02.511Z,17.80
2023-02-18T09:05:29.161Z,17.80
2023-02-18T09:07:55.740Z,17.80
2023-02-18T09:10:22.468Z,17.80
2023-02-18T09:12:49.275Z,17.80
2023-02-18T09:15:15.914Z,17.90
2023-02-18T09:17:42.630Z,17.70
2023-02-18T09:20:09.455Z,17.70
2023-02-18T09:22:36.060Z,17.70
2023-02-18T09:25:03.252Z,17.70
2023-02-18T09:27:29.832Z,17.70
2023-02-18T09:29:56.668Z,17.70
2023-02-18T09:32:34.410Z,17.70
2023-02-18T09:35:02.641Z,17.80
2023-02-18T09:37:29.249Z,17.70
2023-02-18T09:39:56.045Z,17.70
2023-02-18T09:42:26.715Z,18.30
2023-02-18T09:44:55.649Z,17.70
2023-02-18T09:47:39.046Z,17.80
2023-02-18T09:50:13.245Z,17.70
2023-02-18T09:52:40.108Z,17.80
2023-02-18T09:55:28.214Z,17.90
2023-02-18T09:57:57.138Z,17.90
2023-02-18T10:00:28.592Z,18.00
2023-02-18T10:02:55.207Z,18.00
2023-02-18T10:05:22.432Z,18.20
2023-02-18T10:07:51.254Z,18.10
2023-02-18T10:10:36.744Z,18.00
2023-02-18T10:13:05.565Z,18.10
2023-02-18T10:15:32.383Z,18.00
2023-02-18T10:17:59.742Z,18.50
2023-02-18T10:20:28.201Z,17.90
2023-02-18T10:22:56.110Z,17.90
2023-02-18T10:25:23.971Z,18.50
2023-02-18T10:27:52.041Z,17.90
2023-02-18T10:30:24.339Z,17.90
2023-02-18T10:32:54.838Z,17.90
2023-02-18T10:35:28.486Z,17.80
2023-02-18T10:37:55.029Z,17.80
2023-02-18T10:40:40.558Z,17.80
2023-02-18T10:43:33.549Z,17.80
2023-02-18T10:46:15.229Z,17.80
2023-02-18T10:48:47.857Z,17.80
2023-02-18T10:51:20.629Z,17.80
2023-02-18T10:53:48.537Z,17.80
2023-02-18T10:56:35.485Z,17.70
2023-02-18T10:59:09.573Z,17.70
2023-02-18T11:01:36.173Z,17.70
2023-02-18T11:04:15.672Z,17.70
2023-02-18T11:06:45.140Z,17.70
2023-02-18T11:09:26.546Z,17.80
2023-02-18T11:12:07.853Z,17.80
2023-02-18T11:14:45.665Z,17.60
2023-02-18T11:17:17.668Z,17.90
2023-02-18T11:19:51.678Z,18.00
2023-02-18T11:22:20.581Z,17.90
2023-02-18T11:24:50.506Z,17.90
2023-02-18T11:27:37.439Z,17.90
2023-02-18T11:30:06.518Z,17.80
2023-02-18T11:32:35.321Z,18.10
2023-02-18T11:35:03.451Z,17.80
2023-02-18T11:37:32.614Z,17.80
2023-02-18T11:39:59.209Z,17.60
2023-02-18T11:42:26.905Z,17.80
2023-02-18T11:44:55.451Z,17.80
2023-02-18T11:47:25.197Z,17.80
2023-02-18T11:50:10.193Z,17.70
2023-02-18T11:52:39.909Z,17.70
2023-02-18T11:55:08.003Z,17.70
2023-02-18T11:57:36.583Z,17.70
2023-02-18T12:00:04.656Z,17.70
2023-02-18T12:02:36.389Z,17.70
2023-02-18T12:05:21.826Z,17.70
2023-02-18T12:07:50.667Z,17.70
2023-02-18T12:10:28.104Z,17.70
2023-02-18T12:13:07.418Z,17.70
2023-02-18T12:15:54.649Z,17.70
2023-02-18T12:18:30.772Z,17.70
2023-02-18T12:21:11.100Z,17.70
2023-02-18T12:23:45.734Z,17.70
2023-02-18T12:26:16.511Z,17.70
2023-02-18T12:29:01.470Z,17.70
2023-02-18T12:31:46.924Z,17.70
2023-02-18T12:34:23.177Z,17.70
2023-02-18T12:36:59.513Z,17.70
2023-02-18T12:39:44.989Z,17.70
2023-02-18T12:42:16.330Z,17.60
2023-02-18T12:45:05.056Z,17.70
2023-02-18T12:47:46.981Z,17.80
2023-02-18T12:50:28.790Z,17.90
2023-02-18T12:52:55.299Z,18.00
2023-02-18T12:55:21.990Z,18.00
2023-02-18T12:57:57.102Z,18.00
2023-02-18T13:00:32.811Z,18.00
2023-02-18T13:03:17.921Z,17.90
2023-02-18T13:05:50.635Z,18.00
2023-02-18T13:08:40.438Z,17.90
2023-02-18T13:11:10.085Z,17.90
2023-02-18T13:13:39.537Z,17.90
2023-02-18T13:16:09.575Z,17.90
2023-02-18T13:18:39.195Z,17.90
2023-02-18T13:21:07.603Z,17.90
2023-02-18T13:23:35.881Z,17.90
2023-02-18T13:26:04.452Z,17.90
2023-02-18T13:28:34.990Z,18.30
2023-02-18T13:31:01.669Z,17.80
2023-02-18T13:33:31.340Z,17.90
2023-02-18T13:36:01.066Z,17.80
2023-02-18T13:38:46.442Z,17.80
2023-02-18T13:41:13.023Z,17.80
2023-02-18T13:43:39.865Z,17.80
2023-02-18T13:46:06.410Z,17.80
2023-02-18T13:48:41.816Z,17.80
2023-02-18T13:51:08.684Z,17.80
2023-02-18T13:53:37.321Z,17.80
2023-02-18T13:56:05.517Z,17.80
2023-02-18T13:58:37.653Z,18.20
2023-02-18T14:01:06.196Z,17.80
2023-02-18T14:03:39.144Z,17.80
2023-02-18T14:06:24.215Z,17.80
2023-02-18T14:08:51.198Z,17.80
2023-02-18T14:11:18.208Z,17.80
2023-02-18T14:13:50.526Z,17.80
2023-02-18T14:16:18.853Z,17.80
2023-02-18T14:18:45.404Z,17.80
2023-02-18T14:21:11.979Z,17.80
2023-02-18T14:23:38.541Z,17.80
2023-02-18T14:26:05.174Z,17.80
2023-02-18T14:28:36.703Z,18.00
2023-02-18T14:31:04.417Z,18.00
2023-02-18T14:33:31.711Z,18.00
2023-02-18T14:36:17.341Z,18.10
2023-02-18T14:38:43.947Z,18.20
2023-02-18T14:41:32.132Z,18.20
2023-02-18T14:43:58.645Z,18.20
2023-02-18T14:46:33.897Z,18.10
2023-02-18T14:49:19.060Z,18.10
2023-02-18T14:51:48.138Z,18.10
2023-02-18T14:54:17.285Z,18.10
2023-02-18T14:57:07.270Z,18.10
2023-02-18T14:59:40.142Z,18.10
2023-02-18T15:02:22.618Z,18.10
2023-02-18T15:04:50.613Z,18.00
2023-02-18T15:07:20.954Z,18.00
2023-02-18T15:09:48.656Z,18.00
2023-02-18T15:12:18.205Z,18.00
2023-02-18T15:14:45.648Z,18.00
2023-02-18T15:17:17.981Z,18.00
2023-02-18T15:19:48.576Z,18.00
2023-02-18T15:22:19.461Z,17.90
2023-02-18T15:24:46.184Z,17.90
2023-02-18T15:27:14.780Z,17.90
2023-02-18T15:29:41.505Z,17.90
2023-02-18T15:32:15.698Z,17.90
2023-02-18T15:34:42.958Z,17.90
2023-02-18T15:37:14.176Z,17.90
2023-02-18T15:39:41.467Z,18.00
2023-02-18T15:42:07.977Z,18.00
2023-02-18T15:44:35.770Z,18.00
2023-02-18T15:47:07.624Z,18.00
2023-02-18T15:49:35.311Z,18.00
2023-02-18T15:52:02.351Z,18.10
2023-02-18T15:54:29.659Z,18.00
2023-02-18T15:57:00.259Z,18.00
2023-02-18T15:59:26.973Z,18.00
2023-02-18T16:01:55.407Z,18.00
2023-02-18T16:04:23.092Z,18.00
2023-02-18T16:06:51.132Z,18.00
2023-02-18T16:09:29.456Z,18.00
2023-02-18T16:11:59.600Z,18.00
2023-02-18T16:14:43.175Z,18.00
2023-02-18T16:17:12.598Z,18.00
2023-02-18T16:19:51.646Z,18.10
2023-02-18T16:22:24.576Z,18.20
2023-02-18T16:24:54.732Z,18.30
2023-02-18T16:27:21.276Z,18.30
2023-02-18T16:29:50.901Z,18.30
2023-02-18T16:32:17.536Z,18.30
2023-02-18T16:34:44.216Z,18.30
2023-02-18T16:37:29.597Z,18.30
2023-02-18T16:39:57.315Z,18.30
2023-02-18T16:42:24.480Z,18.30
2023-02-18T16:44:51.905Z,18.30
2023-02-18T16:47:19.318Z,18.20
2023-02-18T16:49:47.515Z,18.20
2023-02-18T16:52:16.099Z,18.20
2023-02-18T16:54:42.968Z,18.20
2023-02-18T16:57:10.330Z,18.20
2023-02-18T16:59:36.896Z,18.20
2023-02-18T17:02:03.861Z,18.10
2023-02-18T17:04:30.582Z,18.10
2023-02-18T17:06:57.146Z,18.10
2023-02-18T17:09:26.915Z,18.10
2023-02-18T17:11:54.248Z,18.10
2023-02-18T17:14:21.480Z,18.10
2023-02-18T17:16:48.888Z,18.10
2023-02-18T17:19:16.177Z,18.10
2023-02-18T17:21:42.902Z,18.10
2023-02-18T17:24:11.921Z,18.10
2023-02-18T17:26:38.492Z,18.10
2023-02-18T17:29:05.698Z,18.10
2023-02-18T17:31:35.951Z,18.10
2023-02-18T17:34:05.864Z,18.10
2023-02-18T17:36:33.018Z,18.00
2023-02-18T17:39:02.519Z,18.00
2023-02-18T17:41:29.260Z,18.00
2023-02-18T17:43:55.826Z,18.00
2023-02-18T17:46:22.523Z,17.90
2023-02-18T17:48:49.198Z,18.00
2023-02-18T17:51:26.635Z,18.00
2023-02-18T17:53:53.595Z,17.90
2023-02-18T17:56:20.401Z,18.00
2023-02-18T17:58:47.682Z,17.90
2023-02-18T18:01:15.225Z,18.00
2023-02-18T18:03:41.820Z,18.00
2023-02-18T18:06:15.995Z,18.00
2023-02-18T18:08:42.666Z,18.10
2023-02-18T18:11:12.732Z,18.10
2023-02-18T18:13:39.307Z,18.20
2023-02-18T18:16:05.992Z,18.20
2023-02-18T18:18:32.559Z,18.20
2023-02-18T18:21:00.162Z,18.20
2023-02-18T18:23:28.608Z,18.20
2023-02-18T18:25:56.121Z,18.20
2023-02-18T18:28:22.863Z,18.20
2023-02-18T18:30:50.890Z,18.20
2023-02-18T18:33:25.388Z,18.20
2023-02-18T18:35:54.176Z,18.20
2023-02-18T18:38:21.922Z,18.10
2023-02-18T18:40:48.840Z,18.10
2023-02-18T18:43:17.975Z,18.10
2023-02-18T18:45:44.837Z,18.00
2023-02-18T18:48:11.566Z,18.00
2023-02-18T18:50:39.349Z,18.00
2023-02-18T18:53:10.324Z,18.00
2023-02-18T18:55:38.607Z,18.00
2023-02-18T18:58:05.400Z,18.00
2023-02-18T19:00:36.482Z,18.10
2023-02-18T19:03:04.245Z,18.10
2023-02-18T19:05:32.167Z,18.10
2023-02-18T19:07:59.202Z,18.20
2023-02-18T19:10:27.372Z,18.20
2023-02-18T19:12:56.059Z,18.30
2023-02-18T19:15:23.079Z,18.40
2023-02-18T19:17:51.270Z,18.40
2023-02-18T19:20:19.886Z,18.50
2023-02-18T19:22:46.699Z,18.50
2023-02-18T19:25:13.621Z,18.50
2023-02-18T19:27:41.010Z,18.80
2023-02-18T19:30:08.134Z,18.50
2023-02-18T19:32:34.845Z,18.50
2023-02-18T19:35:01.455Z,18.40
2023-02-18T19:37:30.909Z,18.30
2023-02-18T19:39:57.483Z,18.30
2023-02-18T19:42:24.062Z,18.20
2023-02-18T19:44:50.642Z,18.20
2023-02-18T19:47:17.201Z,18.20
2023-02-18T19:49:44.529Z,18.20
2023-02-18T19:52:11.159Z,18.10
2023-02-18T19:54:37.736Z,18.10
2023-02-18T19:57:05.444Z,18.10
2023-02-18T19:59:32.008Z,18.10
2023-02-18T20:01:58.626Z,18.10
2023-02-18T20:04:25.353Z,18.00
2023-02-18T20:06:51.915Z,18.00
2023-02-18T20:09:18.563Z,18.00
2023-02-18T20:11:45.306Z,18.00
2023-02-18T20:14:11.872Z,17.90
2023-02-18T20:16:38.446Z,17.90
2023-02-18T20:19:05.014Z,17.90
2023-02-18T20:21:31.726Z,18.00
2023-02-18T20:23:58.295Z,17.90
2023-02-18T20:26:24.896Z,17.90
2023-02-18T20:28:51.454Z,17.90
2023-02-18T20:31:18.217Z,17.90
2023-02-18T20:33:44.861Z,17.90
2023-02-18T20:36:12.970Z,17.90
2023-02-18T20:38:39.683Z,17.90
2023-02-18T20:41:07.761Z,18.50
2023-02-18T20:43:34.542Z,17.90
2023-02-18T20:46:04.723Z,17.90
2023-02-18T20:48:31.367Z,17.90
2023-02-18T20:51:02.926Z,18.00
2023-02-18T20:53:30.355Z,18.20
2023-02-18T20:55:57.054Z,18.20
2023-02-18T20:58:23.681Z,18.20
2023-02-18T21:00:57.688Z,18.30
2023-02-18T21:03:24.472Z,18.20
2023-02-18T21:05:57.697Z,18.30
2023-02-18T21:08:24.827Z,18.30
2023-02-18T21:10:52.787Z,18.40
2023-02-18T21:13:20.009Z,18.20
2023-02-18T21:15:47.198Z,18.20
2023-02-18T21:18:14.496Z,18.20
2023-02-18T21:20:41.235Z,18.40
2023-02-18T21:23:08.166Z,18.10
2023-02-18T21:25:35.691Z,18.10
2023-02-18T21:28:02.351Z,18.10
2023-02-18T21:30:29.212Z,18.10
2023-02-18T21:32:56.369Z,18.10
2023-02-18T21:35:24.077Z,18.00
2023-02-18T21:37:51.129Z,17.90
2023-02-18T21:40:18.336Z,17.90
2023-02-18T21:42:45.225Z,17.90
2023-02-18T21:45:16.868Z,18.20
2023-02-18T21:47:43.855Z,17.90
2023-02-18T21:50:14.085Z,17.40
2023-02-18T21:52:42.313Z,17.90
2023-02-18T21:55:09.795Z,17.90
2023-02-18T21:57:36.374Z,17.80
2023-02-18T22:00:18.236Z,17.80
2023-02-18T22:02:46.437Z,17.90
2023-02-18T22:05:12.983Z,17.80
2023-02-18T22:07:39.588Z,17.90
2023-02-18T22:10:06.301Z,17.80
2023-02-18T22:12:33.958Z,17.80
2023-02-18T22:15:00.660Z,17.80
2023-02-18T22:17:29.708Z,18.00
2023-02-18T22:19:56.309Z,17.80
2023-02-18T22:22:23.001Z,17.80
2023-02-18T22:24:50.587Z,17.80
2023-02-18T22:27:19.305Z,17.80
2023-02-18T22:29:47.317Z,17.80
2023-02-18T22:32:14.175Z,17.80
2023-02-18T22:34:40.949Z,17.80
2023-02-18T22:37:07.670Z,17.90
2023-02-18T22:39:34.271Z,17.90
2023-02-18T22:42:00.799Z,18.00
2023-02-18T22:44:27.568Z,18.00
2023-02-18T22:46:54.720Z,18.10
2023-02-18T22:49:21.264Z,18.10
2023-02-18T22:51:50.607Z,18.20
2023-02-18T22:54:17.405Z,18.20
2023-02-18T22:56:45.036Z,18.20
2023-02-18T22:59:12.273Z,18.10
2023-02-18T23:01:40.268Z,18.70
2023-02-18T23:04:08.060Z,18.10
2023-02-18T23:06:35.033Z,18.10
2023-02-18T23:09:01.701Z,18.00
2023-02-18T23:11:28.296Z,18.00
2023-02-18T23:14:13.808Z,18.00
2023-02-18T23:16:59.460Z,18.90
2023-02-18T23:19:26.716Z,18.00
2023-02-18T23:21:53.336Z,18.00
2023-02-18T23:24:20.387Z,17.90
2023-02-18T23:26:47.077Z,17.90
2023-02-18T23:29:14.036Z,18.00
2023-02-18T23:31:40.775Z,17.90
2023-02-18T23:34:08.272Z,17.90
2023-02-18T23:36:35.342Z,18.00
2023-02-18T23:39:03.681Z,17.90
2023-02-18T23:41:30.754Z,18.10
2023-02-18T23:43:57.583Z,17.90
2023-02-18T23:46:25.161Z,18.00
2023-02-18T23:48:54.206Z,17.90
2023-02-18T23:51:21.504Z,17.90
2023-02-18T23:53:48.130Z,17.80
2023-02-18T23:56:16.001Z,17.90
2023-02-18T23:58:44.500Z,17.90
